createdAt,value
2019-02-25T20:07:15.892Z,18.70
2019-02-25T20:09:44.834Z,18.20
2019-02-25T20:12:13.836Z,18.10
2019-02-25T20:14:42.626Z,18.00
2019-02-25T20:17:11.517Z,19.60
2019-02-25T20:19:41.741Z,21.80
2019-02-25T20:22:12.005Z,20.30
2019-02-25T20:24:44.187Z,19.40
2019-02-25T20:27:10.970Z,19.00
2019-02-25T20:29:40.376Z,18.80
2019-02-25T20:32:11.755Z,18.70
2019-02-25T20:34:40.304Z,18.70
2019-02-25T20:37:09.092Z,18.60
2019-02-25T20:39:38.686Z,18.70
2019-02-25T20:42:08.206Z,18.70
2019-02-25T20:44:36.691Z,18.70
2019-02-25T20:47:05.269Z,18.50
2019-02-25T20:49:33.955Z,18.60
2019-02-25T20:52:02.643Z,18.50
2019-02-25T20:54:31.219Z,18.40
2019-02-25T20:57:00.017Z,18.40
2019-02-25T20:59:30.350Z,18.30
2019-02-25T21:01:58.820Z,18.30
2019-02-25T21:04:27.807Z,18.30
2019-02-25T21:06:56.583Z,18.30
2019-02-25T21:11:39.373Z,18.30
2019-02-25T21:14:08.014Z,18.90
2019-02-25T21:16:36.699Z,19.10
2019-02-25T21:19:05.287Z,19.20
2019-02-25T21:21:34.559Z,19.30
2019-02-25T21:24:06.282Z,19.40
2019-02-25T21:26:36.374Z,19.40
2019-02-25T21:29:06.804Z,19.40
2019-02-25T21:31:34.994Z,19.50
2019-02-25T21:34:03.910Z,19.40
2019-02-25T21:36:33.876Z,19.50
2019-02-25T21:39:03.068Z,19.50
2019-02-25T21:41:31.650Z,19.50
2019-02-25T21:44:00.231Z,19.50
2019-02-25T21:46:29.559Z,19.40
2019-02-25T21:49:01.614Z,19.40
2019-02-25T21:51:32.676Z,19.40
2019-02-25T21:53:59.999Z,19.50
2019-02-25T21:56:29.705Z,19.40
2019-02-25T21:58:58.281Z,19.40
2019-02-25T22:01:26.975Z,19.40
2019-02-25T22:03:55.661Z,19.40
2019-02-25T22:06:26.363Z,19.40
2019-02-25T22:08:56.249Z,19.30
2019-02-25T22:11:24.686Z,19.20
2019-02-25T22:13:53.269Z,19.10
2019-02-25T22:16:23.493Z,19.00
2019-02-25T22:18:52.668Z,19.00
2019-02-25T22:21:22.434Z,18.90
2019-02-25T22:24:44.950Z,18.90
2019-02-25T22:27:14.475Z,19.30
2019-02-25T22:29:45.220Z,19.20
2019-02-25T22:33:30.422Z,19.50
2019-02-25T22:35:58.884Z,19.60
2019-02-25T22:38:27.379Z,19.60
2019-02-25T22:40:57.567Z,19.40
2019-02-25T22:43:25.989Z,19.20
2019-02-25T22:45:56.201Z,19.10
2019-02-25T22:48:24.603Z,19.00
2019-02-25T22:53:06.797Z,19.00
2019-02-25T22:55:41.892Z,18.90
2019-02-25T22:58:10.433Z,18.90
2019-02-25T23:00:53.664Z,18.90
2019-02-25T23:03:25.795Z,18.90
2019-02-25T23:05:55.541Z,18.90
2019-02-25T23:08:25.974Z,18.90
